createdAt,value
2018-05-03T04:33:06.297Z,82.40
2018-05-03T04:35:38.187Z,82.80
2018-05-03T04:38:10.825Z,81.70
2018-05-03T04:40:42.721Z,82.50
2018-05-03T04:43:14.585Z,81.00
2018-05-03T04:45:46.483Z,81.40
2018-05-03T04:48:19.120Z,80.70
2018-05-03T04:50:50.996Z,80.60
2018-05-03T04:53:22.869Z,79.40
2018-05-03T04:55:55.774Z,79.80
2018-05-03T04:58:27.942Z,79.70
2018-05-03T05:01:00.118Z,80.40
2018-05-03T05:03:31.985Z,81.10
2018-05-03T05:06:03.873Z,79.90
2018-05-03T05:08:35.749Z,80.10
2018-05-03T05:11:07.648Z,78.60
2018-05-03T05:13:40.318Z,74.40
2018-05-03T05:16:12.206Z,74.40
2018-05-03T05:18:44.147Z,74.80
2018-05-03T05:21:16.790Z,69.30
2018-05-03T05:23:48.659Z,69.30
2018-05-03T05:26:20.556Z,66.80
2018-05-03T05:28:52.418Z,64.70
2018-05-03T05:31:24.578Z,64.20
2018-05-03T05:33:56.446Z,62.70
2018-05-03T05:36:28.330Z,63.00
2018-05-03T05:39:00.549Z,62.80
2018-05-03T05:41:32.345Z,61.10
2018-05-03T05:44:04.249Z,61.30
2018-05-03T05:46:36.138Z,61.40
2018-05-03T05:49:08.013Z,60.90
2018-05-03T05:51:40.167Z,59.90
2018-05-03T05:54:12.046Z,59.80
2018-05-03T05:56:44.269Z,58.40
2018-05-03T05:59:16.073Z,60.70
2018-05-03T06:01:47.957Z,61.10
2018-05-03T06:04:19.875Z,61.00
2018-05-03T06:06:51.755Z,60.30
2018-05-03T06:09:23.904Z,60.30
2018-05-03T06:11:55.785Z,59.60
2018-05-03T06:14:27.680Z,60.80
2018-05-03T06:16:59.889Z,61.50
2018-05-03T06:19:31.763Z,60.40
2018-05-03T06:22:03.650Z,60.00
2018-05-03T06:24:35.529Z,58.20
2018-05-03T06:27:07.413Z,56.90
2018-05-03T06:29:40.048Z,57.20
2018-05-03T06:32:11.933Z,57.10
2018-05-03T06:34:43.869Z,57.70
2018-05-03T06:37:15.758Z,58.20
2018-05-03T06:39:47.629Z,58.10
2018-05-03T06:42:20.278Z,57.10
2018-05-03T06:44:52.162Z,57.10
2018-05-03T06:47:24.058Z,56.60
2018-05-03T06:49:55.934Z,54.60
2018-05-03T06:52:28.075Z,53.50
2018-05-03T06:54:59.949Z,54.80
2018-05-03T06:57:31.883Z,55.00
2018-05-03T07:00:04.518Z,54.90
2018-05-03T07:02:36.409Z,54.90
2018-05-03T07:05:08.298Z,53.90
2018-05-03T07:07:40.414Z,53.60
2018-05-03T07:10:12.286Z,53.60
2018-05-03T07:12:44.182Z,53.20
2018-05-03T07:15:16.090Z,53.60
2018-05-03T07:17:47.984Z,54.50
2018-05-03T07:20:20.638Z,52.20
2018-05-03T07:22:52.529Z,52.20
2018-05-03T07:25:25.177Z,53.00
2018-05-03T07:27:57.065Z,53.00
2018-05-03T07:30:29.717Z,52.70
2018-05-03T07:33:01.718Z,52.70
2018-05-03T07:35:34.358Z,51.90
2018-05-03T07:38:06.302Z,51.90
2018-05-03T07:40:38.265Z,51.50
2018-05-03T07:43:10.861Z,54.30
2018-05-03T07:45:43.865Z,54.50
2018-05-03T07:48:16.763Z,54.90
2018-05-03T07:50:49.397Z,55.10
2018-05-03T07:53:21.305Z,55.10
2018-05-03T07:55:54.196Z,56.00
2018-05-03T07:58:26.077Z,56.00
2018-05-03T08:00:58.011Z,56.10
2018-05-03T08:03:30.680Z,56.20
2018-05-03T08:06:03.319Z,55.30
2018-05-03T08:08:35.224Z,55.20
2018-05-03T08:11:07.862Z,54.90
2018-05-03T08:13:40.075Z,54.90
2018-05-03T08:16:11.949Z,54.40
2018-05-03T08:18:44.103Z,54.10
2018-05-03T08:21:16.267Z,52.50
2018-05-03T08:23:48.278Z,52.80
2018-05-03T08:26:20.866Z,53.00
2018-05-03T08:28:52.768Z,52.30
2018-05-03T08:31:25.657Z,51.50
2018-05-03T08:33:57.556Z,50.20
2018-05-03T08:36:29.523Z,50.20
2018-05-03T08:39:01.482Z,51.50
2018-05-03T08:41:33.397Z,50.70
2018-05-03T08:44:05.406Z,49.90
2018-05-03T08:46:37.370Z,51.10
2018-05-03T08:49:09.489Z,52.80
2018-05-03T08:51:41.408Z,52.20
2018-05-03T08:54:13.309Z,52.20
2018-05-03T08:56:45.182Z,53.40
2018-05-03T08:59:17.192Z,54.50
2018-05-03T09:01:49.343Z,55.00
2018-05-03T09:04:21.468Z,55.40
2018-05-03T09:06:53.637Z,54.70
2018-05-03T09:09:25.637Z,54.60
2018-05-03T09:11:58.346Z,54.30
2018-05-03T09:14:30.281Z,52.10
2018-05-03T09:17:02.250Z,51.90
2018-05-03T09:19:34.162Z,50.30
2018-05-03T09:22:06.042Z,48.30
2018-05-03T09:24:38.185Z,48.00
2018-05-03T09:27:10.357Z,46.60
2018-05-03T09:29:42.259Z,47.90
2018-05-03T09:32:14.125Z,49.20
2018-05-03T09:34:46.034Z,49.30
2018-05-03T09:37:18.671Z,48.60
2018-05-03T09:39:50.578Z,48.60
2018-05-03T09:42:22.466Z,48.70
2018-05-03T09:44:54.374Z,48.00
2018-05-03T09:47:27.285Z,48.00
2018-05-03T09:49:59.406Z,47.90
2018-05-03T09:52:31.384Z,46.20
2018-05-03T09:55:03.207Z,46.80
2018-05-03T09:57:35.337Z,45.60
2018-05-03T10:00:07.229Z,44.80
2018-05-03T10:02:39.105Z,43.40
2018-05-03T10:05:11.030Z,43.10
2018-05-03T10:07:42.910Z,42.60
2018-05-03T10:10:15.041Z,42.80
2018-05-03T10:12:47.202Z,43.50
2018-05-03T10:15:19.113Z,42.90
2018-05-03T10:17:50.991Z,42.50
2018-05-03T10:20:22.904Z,42.00
2018-05-03T10:22:54.794Z,41.50
2018-05-03T10:25:26.686Z,41.80
2018-05-03T10:27:59.337Z,41.70
2018-05-03T10:30:31.243Z,41.80
2018-05-03T10:33:03.127Z,43.40
2018-05-03T10:35:35.275Z,44.40
2018-05-03T10:38:07.484Z,44.90
2018-05-03T10:40:39.481Z,44.80
2018-05-03T10:43:12.133Z,45.70
2018-05-03T10:45:44.049Z,45.60
2018-05-03T10:48:15.918Z,43.30
2018-05-03T10:50:47.843Z,42.50
2018-05-03T10:53:19.704Z,42.00
2018-05-03T10:55:51.602Z,43.20
2018-05-03T10:58:23.493Z,42.60
2018-05-03T11:00:55.381Z,42.70
2018-05-03T11:03:28.187Z,43.50
2018-05-03T11:06:00.147Z,43.50
2018-05-03T11:08:32.039Z,43.50
2018-05-03T11:11:03.976Z,44.00
2018-05-03T11:13:36.594Z,41.60
2018-05-03T11:16:08.814Z,41.50
2018-05-03T11:18:40.697Z,41.40
2018-05-03T11:21:12.598Z,41.70
2018-05-03T11:23:44.474Z,41.00
2018-05-03T11:26:16.365Z,41.10
2018-05-03T11:28:48.237Z,42.20
2018-05-03T11:31:20.135Z,41.20
2018-05-03T11:33:52.019Z,40.80
2018-05-03T11:36:24.694Z,41.20
2018-05-03T11:38:57.337Z,41.70
2018-05-03T11:41:30.021Z,41.60
2018-05-03T11:44:01.898Z,41.60
2018-05-03T11:46:33.793Z,43.10
2018-05-03T11:49:05.701Z,41.80
2018-05-03T11:51:37.594Z,42.60
2018-05-03T11:54:10.241Z,39.80
2018-05-03T11:56:42.138Z,39.90
2018-05-03T11:59:14.835Z,40.10
2018-05-03T12:01:46.994Z,40.00
2018-05-03T12:04:19.167Z,39.70
2018-05-03T12:06:51.066Z,40.40
2018-05-03T12:09:23.192Z,39.80
2018-05-03T12:11:55.354Z,38.50
2018-05-03T12:14:27.231Z,38.90
2018-05-03T12:16:59.146Z,39.20
2018-05-03T12:19:31.038Z,40.30
2018-05-03T12:22:02.945Z,41.20
2018-05-03T12:24:34.810Z,41.40
2018-05-03T12:27:06.715Z,41.40
2018-05-03T12:29:38.600Z,42.10
2018-05-03T12:32:11.267Z,41.50
2018-05-03T12:34:43.146Z,41.50
2018-05-03T12:37:15.058Z,41.00
2018-05-03T12:39:47.698Z,41.50
2018-05-03T12:42:19.594Z,41.50
2018-05-03T12:44:52.499Z,40.10
2018-05-03T12:47:24.390Z,40.00
2018-05-03T12:49:56.268Z,41.10
2018-05-03T12:52:28.985Z,40.90
2018-05-03T12:55:01.631Z,40.40
2018-05-03T12:57:33.534Z,40.50
2018-05-03T13:00:06.181Z,38.40
2018-05-03T13:02:38.083Z,38.40
2018-05-03T13:05:09.951Z,39.20
2018-05-03T13:07:41.904Z,39.60
2018-05-03T13:10:13.867Z,38.30
2018-05-03T13:12:45.763Z,37.40
2018-05-03T13:15:17.633Z,37.10
2018-05-03T13:17:49.526Z,37.70
2018-05-03T13:20:22.425Z,38.20
2018-05-03T13:22:54.833Z,38.10
2018-05-03T13:25:26.759Z,35.10
2018-05-03T13:27:58.721Z,36.50
2018-05-03T13:30:30.598Z,36.60
2018-05-03T13:33:02.485Z,38.10
2018-05-03T13:35:34.361Z,39.30
2018-05-03T13:38:06.269Z,38.40
2018-05-03T13:40:38.136Z,39.00
2018-05-03T13:43:10.059Z,39.70
2018-05-03T13:45:41.909Z,39.40
2018-05-03T13:48:13.814Z,40.40
2018-05-03T13:50:45.684Z,39.30
2018-05-03T13:53:17.633Z,39.70
2018-05-03T13:55:49.485Z,40.10
2018-05-03T13:58:21.502Z,39.60
2018-05-03T14:00:53.809Z,39.90
2018-05-03T14:03:25.625Z,40.40
2018-05-03T14:05:57.498Z,38.60
2018-05-03T14:08:29.385Z,39.10
2018-05-03T14:11:02.031Z,38.90
2018-05-03T14:13:34.238Z,38.90
2018-05-03T14:16:06.110Z,38.00
2018-05-03T14:18:38.102Z,39.20
2018-05-03T14:21:10.068Z,39.70
2018-05-03T14:23:41.930Z,40.50
2018-05-03T14:26:13.807Z,39.40
2018-05-03T14:28:45.733Z,38.90
2018-05-03T14:31:17.869Z,38.50
2018-05-03T14:33:49.890Z,38.10
2018-05-03T14:36:21.770Z,39.30
2018-05-03T14:38:53.961Z,39.30
2018-05-03T14:41:25.831Z,39.20
2018-05-03T14:43:57.722Z,38.90
2018-05-03T14:46:29.590Z,39.90
2018-05-03T14:49:01.485Z,40.30
2018-05-03T14:51:34.118Z,39.40
2018-05-03T14:54:06.776Z,39.30
2018-05-03T14:56:38.922Z,39.20
2018-05-03T14:59:10.826Z,40.20
2018-05-03T15:01:42.697Z,40.70
2018-05-03T15:04:14.604Z,38.90
2018-05-03T15:06:47.237Z,38.80
2018-05-03T15:09:19.357Z,38.80
2018-05-03T15:11:51.225Z,39.20
2018-05-03T15:14:23.375Z,39.20
2018-05-03T15:16:55.237Z,39.60
2018-05-03T15:19:27.138Z,41.20
2018-05-03T15:21:59.257Z,40.80
2018-05-03T15:24:31.140Z,41.10
2018-05-03T15:27:02.997Z,42.00
2018-05-03T15:29:34.933Z,41.00
2018-05-03T15:32:07.825Z,40.10
2018-05-03T15:34:39.782Z,40.10
2018-05-03T15:37:12.421Z,40.00
2018-05-03T15:39:44.322Z,40.00
2018-05-03T15:42:16.283Z,40.50
2018-05-03T15:44:49.001Z,39.50
2018-05-03T15:47:20.962Z,39.50
2018-05-03T15:49:52.970Z,39.30
2018-05-03T15:52:24.858Z,39.40
2018-05-03T15:54:56.853Z,38.80
2018-05-03T15:57:28.731Z,40.70
2018-05-03T16:00:00.629Z,41.20
2018-05-03T16:02:32.505Z,40.90
2018-05-03T16:05:04.381Z,41.10
2018-05-03T16:07:36.256Z,41.70
2018-05-03T16:10:08.246Z,41.70
2018-05-03T16:12:41.027Z,41.70
2018-05-03T16:15:12.941Z,41.30
2018-05-03T16:17:44.809Z,41.60
2018-05-03T16:20:16.709Z,41.60
2018-05-03T16:22:48.581Z,42.80
2018-05-03T16:25:21.250Z,41.80
2018-05-03T16:27:53.113Z,41.80
2018-05-03T16:30:25.781Z,41.10
2018-05-03T16:32:57.657Z,41.10
2018-05-03T16:35:30.325Z,41.90
2018-05-03T16:38:03.234Z,41.80
2018-05-03T16:40:35.130Z,41.30
2018-05-03T16:43:07.006Z,41.60
2018-05-03T16:45:38.911Z,41.30
2018-05-03T16:48:11.798Z,41.70
2018-05-03T16:50:43.702Z,41.10
2018-05-03T16:53:15.825Z,42.10
2018-05-03T16:55:48.033Z,42.60
2018-05-03T16:58:20.669Z,42.30
2018-05-03T17:00:52.593Z,42.30
2018-05-03T17:03:24.468Z,42.30
2018-05-03T17:05:56.361Z,43.00
2018-05-03T17:08:28.230Z,43.40
2018-05-03T17:11:00.126Z,43.00
2018-05-03T17:13:31.999Z,43.00
2018-05-03T17:16:04.111Z,43.90
2018-05-03T17:18:36.266Z,43.20
2018-05-03T17:21:08.171Z,42.90
2018-05-03T17:23:40.058Z,42.90
2018-05-03T17:26:11.966Z,43.20
2018-05-03T17:28:43.841Z,43.00
2018-05-03T17:31:15.977Z,43.20
2018-05-03T17:33:47.894Z,43.80
2018-05-03T17:36:19.746Z,43.90
2018-05-03T17:38:51.866Z,43.30
2018-05-03T17:41:23.758Z,43.70
2018-05-03T17:43:55.886Z,44.60
2018-05-03T17:46:28.051Z,44.00
2018-05-03T17:48:59.943Z,44.30
2018-05-03T17:51:31.838Z,44.20
2018-05-03T17:54:03.733Z,44.60
2018-05-03T17:56:36.452Z,45.40
2018-05-03T17:59:08.321Z,45.40
2018-05-03T18:01:40.220Z,44.50
2018-05-03T18:04:12.858Z,45.40
2018-05-03T18:06:44.978Z,45.40
2018-05-03T18:09:16.877Z,45.90
2018-05-03T18:11:48.770Z,46.30
2018-05-03T18:14:20.642Z,46.20
2018-05-03T18:16:53.303Z,46.80
2018-05-03T18:19:25.173Z,46.80
2018-05-03T18:21:57.084Z,46.70
2018-05-03T18:24:29.186Z,46.80
2018-05-03T18:27:01.081Z,47.00
2018-05-03T18:29:32.952Z,47.20
2018-05-03T18:32:04.880Z,47.40
2018-05-03T18:34:36.764Z,47.80
2018-05-03T18:37:09.430Z,48.20
2018-05-03T18:39:42.079Z,48.70
2018-05-03T18:42:13.985Z,48.70
2018-05-03T18:44:45.878Z,48.70
2018-05-03T18:47:17.807Z,48.80
2018-05-03T18:49:49.749Z,49.00
2018-05-03T18:52:21.830Z,49.20
2018-05-03T18:54:53.701Z,49.30
2018-05-03T18:57:25.610Z,49.60
2018-05-03T18:59:57.473Z,49.70
2018-05-03T19:02:29.370Z,50.00
2018-05-03T19:05:01.253Z,50.10
2018-05-03T19:07:33.193Z,50.40
2018-05-03T19:10:05.038Z,50.70
2018-05-03T19:12:37.719Z,51.20
2018-05-03T19:15:10.349Z,51.50
2018-05-03T19:17:42.234Z,51.50
2018-05-03T19:20:14.117Z,52.40
2018-05-03T19:22:46.786Z,52.40
2018-05-03T19:25:19.690Z,52.60
2018-05-03T19:27:51.610Z,52.60
2018-05-03T19:30:23.496Z,52.70
2018-05-03T19:32:55.398Z,52.80
2018-05-03T19:35:27.558Z,52.70
2018-05-03T19:37:59.491Z,53.20
2018-05-03T19:40:32.127Z,53.90
2018-05-03T19:43:04.026Z,53.90
2018-05-03T19:45:36.662Z,54.50
2018-05-03T19:48:08.562Z,54.40
2018-05-03T19:50:41.206Z,55.00
2018-05-03T19:53:13.108Z,54.90
2018-05-03T19:55:45.750Z,55.10
2018-05-03T19:58:17.858Z,55.00
2018-05-03T20:00:49.730Z,55.30
2018-05-03T20:03:21.629Z,55.70
2018-05-03T20:05:53.503Z,56.10
2018-05-03T20:08:25.466Z,56.30
2018-05-03T20:10:57.290Z,56.60
2018-05-03T20:13:29.182Z,57.20
2018-05-03T20:16:01.054Z,57.10
2018-05-03T20:18:33.728Z,57.30
2018-05-03T20:21:05.593Z,57.70
2018-05-03T20:23:38.249Z,57.50
2018-05-03T20:26:10.127Z,57.40
2018-05-03T20:28:42.040Z,57.80
2018-05-03T20:31:13.910Z,57.90
2018-05-03T20:33:45.806Z,57.80
2018-05-03T20:36:17.686Z,58.40
2018-05-03T20:38:50.353Z,59.30
2018-05-03T20:41:22.990Z,60.00
2018-05-03T20:43:54.898Z,59.80
2018-05-03T20:46:27.802Z,60.50
2018-05-03T20:48:59.701Z,60.50
2018-05-03T20:51:31.578Z,61.50
2018-05-03T20:54:03.480Z,62.00
2018-05-03T20:56:35.455Z,62.50
2018-05-03T20:59:07.297Z,62.40
2018-05-03T21:01:39.168Z,62.80
2018-05-03T21:04:11.058Z,63.30
2018-05-03T21:06:42.934Z,63.60
2018-05-03T21:09:14.820Z,63.60
2018-05-03T21:11:47.721Z,64.20
2018-05-03T21:14:19.617Z,64.20
2018-05-03T21:16:51.485Z,64.40
2018-05-03T21:19:23.402Z,65.80
2018-05-03T21:21:55.273Z,66.40
2018-05-03T21:24:27.174Z,66.50
2018-05-03T21:26:59.054Z,67.00
2018-05-03T21:29:31.246Z,67.60
2018-05-03T21:32:03.128Z,67.30
2018-05-03T21:34:35.022Z,67.00
2018-05-03T21:37:07.134Z,67.20
2018-05-03T21:39:39.022Z,68.10
2018-05-03T21:42:10.890Z,68.70
2018-05-03T21:44:42.774Z,68.20
2018-05-03T21:47:14.654Z,68.40
2018-05-03T21:49:47.302Z,69.40
2018-05-03T21:52:19.420Z,69.30
2018-05-03T21:54:51.334Z,69.70
2018-05-03T21:57:23.209Z,69.80
2018-05-03T21:59:55.407Z,70.20
2018-05-03T22:02:27.368Z,71.30
2018-05-03T22:04:59.293Z,71.70
2018-05-03T22:07:31.182Z,71.80
2018-05-03T22:10:03.926Z,73.00
2018-05-03T22:12:36.044Z,72.90
2018-05-03T22:15:07.938Z,72.60
2018-05-03T22:17:40.059Z,72.70
2018-05-03T22:20:12.178Z,73.20
2018-05-03T22:22:44.049Z,73.20
2018-05-03T22:25:15.962Z,73.60
2018-05-03T22:27:47.829Z,73.70
2018-05-03T22:30:19.973Z,73.80
2018-05-03T22:32:51.853Z,74.60
2018-05-03T22:35:23.998Z,74.70
2018-05-03T22:37:55.877Z,75.00
2018-05-03T22:40:27.775Z,74.80
2018-05-03T22:42:59.713Z,75.10
2018-05-03T22:45:31.609Z,75.60
2018-05-03T22:48:03.806Z,75.80
2018-05-03T22:50:35.706Z,76.10
2018-05-03T22:53:07.586Z,76.40
2018-05-03T22:55:39.474Z,76.50
2018-05-03T22:58:12.125Z,76.90
2018-05-03T23:00:44.026Z,76.90
2018-05-03T23:03:15.897Z,77.30
2018-05-03T23:05:48.051Z,78.50
2018-05-03T23:08:19.936Z,78.40
2018-05-03T23:10:51.837Z,78.60
2018-05-03T23:13:23.943Z,78.80
2018-05-03T23:15:55.832Z,79.10
2018-05-03T23:18:27.702Z,79.10
2018-05-03T23:20:59.894Z,79.50
2018-05-03T23:23:31.989Z,79.20
2018-05-03T23:26:03.888Z,79.00
2018-05-03T23:28:35.766Z,80.10
2018-05-03T23:31:07.662Z,80.40
2018-05-03T23:33:40.290Z,80.10
2018-05-03T23:36:12.175Z,80.00
2018-05-03T23:38:44.273Z,80.30
2018-05-03T23:41:16.439Z,80.90
2018-05-03T23:43:48.606Z,81.20
2018-05-03T23:46:20.503Z,81.30
2018-05-03T23:48:52.383Z,81.40
2018-05-03T23:51:24.266Z,81.30
2018-05-03T23:53:56.901Z,82.00
2018-05-03T23:56:28.789Z,81.90
2018-05-03T23:59:00.654Z,82.30
